Atascadero, California
Current Conditions -  °F | °C
As of 12:53 PM on Tuesday 27 Jan 2015 (Local Time) from KPRB Reporting Station
Clear Clear  
Wind Chill: 63°   Ceiling: Unl
Heat Index: 63°   Visibility: 10mi
Dew Point: 51°   Wind: 5mph
Humidity: 65%   Direction: 70°ENE
Pressure: 30.2"   Gusts: NA
Location:  35.49°N, 120.66°W
Report Text: KPRB 272053Z AUTO 07004KT 10SM CLR 17/11 A3020 RMK AO2 SLP223 T01720106 58010 TSNO
Loading
Personal Weather Stations






























Interactive Weather Map New forecast layout! Learn more

10-Day Weather Forecast

Advertisements
Track Severe Weather on mobile